Time,TemperatureF,DewpointF,PressureIn,WindDirection,WindDirectionDegrees,WindSpeedMPH,WindSpeedGustMPH,Humidity,HourlyPrecipIn,Conditions,Clouds,dailyrainin,SoftwareType,DateUTC
2013-06-13 00:42:00,67.0,28.0,-100.00,North,-999,-999.0,-999.0,23,0.00,,,-99.99,,2013-06-13 07:42:00,
2013-06-13 01:43:00,68.0,28.0,-100.00,North,-999,-999.0,-999.0,22,0.00,,,-99.99,,2013-06-13 08:43:00,
2013-06-13 02:42:00,72.0,32.0,-100.00,North,-999,-999.0,-999.0,23,0.00,,,-99.99,,2013-06-13 09:42:00,
2013-06-13 03:00:00,74.0,46.0,-100.00,North,-999,-999.0,-999.0,36,0.00,,,-99.99,,2013-06-13 10:00:00,
2013-06-13 03:33:00,74.0,46.0,-100.00,North,-999,-999.0,-999.0,36,0.00,,,-99.99,,2013-06-13 10:33:00,
2013-06-13 03:43:00,74.0,46.0,-100.00,North,-999,-999.0,-999.0,36,0.00,,,-99.99,,2013-06-13 10:43:00,
2013-06-13 03:53:00,74.0,46.0,-100.00,North,-999,-999.0,-999.0,36,0.00,,,-99.99,,2013-06-13 10:53:00,
2013-06-13 04:42:00,68.0,47.0,-100.00,North,-999,-999.0,-999.0,45,0.00,,,-99.99,,2013-06-13 11:42:00,
2013-06-13 05:00:00,66.0,47.0,-100.00,North,-999,-999.0,-999.0,50,0.00,,,-99.99,,2013-06-13 12:00:00,
2013-06-13 05:43:00,66.0,47.0,-100.00,North,-999,-999.0,-999.0,50,0.00,,,-99.99,,2013-06-13 12:43:00,
2013-06-13 06:43:00,66.0,49.0,-100.00,North,-999,-999.0,-999.0,54,0.00,,,-99.99,,2013-06-13 13:43:00,
2013-06-13 07:00:00,73.0,53.0,-100.00,North,-999,-999.0,-999.0,49,0.00,,,-99.99,,2013-06-13 14:00:00,
2013-06-13 07:33:00,73.0,53.0,-100.00,North,-999,-999.0,-999.0,49,0.00,,,-99.99,,2013-06-13 14:33:00,
2013-06-13 07:43:00,73.0,53.0,-100.00,North,-999,-999.0,-999.0,49,0.00,,,-99.99,,2013-06-13 14:43:00,
2013-06-13 07:53:00,73.0,53.0,-100.00,North,-999,-999.0,-999.0,49,0.00,,,-99.99,,2013-06-13 14:53:00,
2013-06-13 08:00:00,80.0,49.0,-100.00,North,-999,-999.0,-999.0,34,0.00,,,-99.99,,2013-06-13 15:00:00,
2013-06-13 08:22:00,80.0,49.0,-100.00,North,-999,-999.0,-999.0,34,0.00,,,-99.99,,2013-06-13 15:22:00,
2013-06-13 08:33:00,80.0,49.0,-100.00,North,-999,-999.0,-999.0,34,0.00,,,-99.99,,2013-06-13 15:33:00,
2013-06-13 08:43:00,80.0,49.0,-100.00,North,-999,-999.0,-999.0,34,0.00,,,-99.99,,2013-06-13 15:43:00,
2013-06-13 08:53:00,80.0,49.0,-100.00,North,-999,-999.0,-999.0,34,0.00,,,-99.99,,2013-06-13 15:53:00,
2013-06-13 09:00:00,88.0,43.0,-100.00,North,-999,-999.0,-999.0,20,0.00,,,-99.99,,2013-06-13 16:00:00,
2013-06-13 09:33:00,88.0,43.0,-100.00,North,-999,-999.0,-999.0,20,0.00,,,-99.99,,2013-06-13 16:33:00,
2013-06-13 09:43:00,88.0,43.0,-100.00,North,-999,-999.0,-999.0,20,0.00,,,-99.99,,2013-06-13 16:43:00,
2013-06-13 09:53:00,88.0,43.0,-100.00,North,-999,-999.0,-999.0,20,0.00,,,-99.99,,2013-06-13 16:53:00,
2013-06-13 10:00:00,90.0,39.0,-100.00,North,-999,-999.0,-999.0,16,0.00,,,-99.99,,2013-06-13 17:00:00,
2013-06-13 10:33:00,90.0,39.0,-100.00,North,-999,-999.0,-999.0,16,0.00,,,-99.99,,2013-06-13 17:33:00,
2013-06-13 10:43:00,90.0,39.0,-100.00,North,-999,-999.0,-999.0,16,0.00,,,-99.99,,2013-06-13 17:43:00,
2013-06-13 10:53:00,90.0,39.0,-100.00,North,-999,-999.0,-999.0,16,0.00,,,-99.99,,2013-06-13 17:53:00,
2013-06-13 11:00:00,94.0,39.0,-100.00,North,-999,-999.0,-999.0,14,0.00,,,-99.99,,2013-06-13 18:00:00,
2013-06-13 11:22:00,94.0,39.0,-100.00,North,-999,-999.0,-999.0,14,0.00,,,-99.99,,2013-06-13 18:22:00,
2013-06-13 11:33:00,94.0,39.0,-100.00,North,-999,-999.0,-999.0,14,0.00,,,-99.99,,2013-06-13 18:33:00,
2013-06-13 11:43:00,94.0,39.0,-100.00,North,-999,-999.0,-999.0,14,0.00,,,-99.99,,2013-06-13 18:43:00,
2013-06-13 11:52:00,94.0,39.0,-100.00,North,-999,-999.0,-999.0,14,0.00,,,-99.99,,2013-06-13 18:52:00,
2013-06-13 12:00:00,96.0,36.0,-100.00,North,-999,-999.0,-999.0,12,0.00,,,-99.99,,2013-06-13 19:00:00,
2013-06-13 12:22:00,96.0,36.0,-100.00,North,-999,-999.0,-999.0,12,0.00,,,-99.99,,2013-06-13 19:22:00,
2013-06-13 12:33:00,96.0,36.0,-100.00,North,-999,-999.0,-999.0,12,0.00,,,-99.99,,2013-06-13 19:33:00,
2013-06-13 12:43:00,96.0,36.0,-100.00,North,-999,-999.0,-999.0,12,0.00,,,-99.99,,2013-06-13 19:43:00,
2013-06-13 12:53:00,96.0,36.0,-100.00,North,-999,-999.0,-999.0,12,0.00,,,-99.99,,2013-06-13 19:53:00,
2013-06-13 13:00:00,96.0,35.0,-100.00,North,-999,-999.0,-999.0,12,0.00,,,-99.99,,2013-06-13 20:00:00,
2013-06-13 13:22:00,96.0,35.0,-100.00,North,-999,-999.0,-999.0,12,0.00,,,-99.99,,2013-06-13 20:22:00,
2013-06-13 13:33:00,96.0,35.0,-100.00,North,-999,-999.0,-999.0,12,0.00,,,-99.99,,2013-06-13 20:33:00,
2013-06-13 13:44:00,96.0,35.0,-100.00,North,-999,-999.0,-999.0,12,0.00,,,-99.99,,2013-06-13 20:44:00,
2013-06-13 13:53:00,96.0,35.0,-100.00,North,-999,-999.0,-999.0,12,0.00,,,-99.99,,2013-06-13 20:53:00,
2013-06-13 14:00:00,98.0,35.0,-100.00,North,-999,-999.0,-999.0,11,0.00,,,-99.99,,2013-06-13 21:00:00,
2013-06-13 14:34:00,98.0,35.0,-100.00,North,-999,-999.0,-999.0,11,0.00,,,-99.99,,2013-06-13 21:34:00,
2013-06-13 14:43:00,98.0,35.0,-100.00,North,-999,-999.0,-999.0,11,0.00,,,-99.99,,2013-06-13 21:43:00,
2013-06-13 14:52:00,98.0,35.0,-100.00,North,-999,-999.0,-999.0,11,0.00,,,-99.99,,2013-06-13 21:52:00,
2013-06-13 15:00:00,99.0,34.0,-100.00,North,-999,-999.0,-999.0,10,0.00,,,-99.99,,2013-06-13 22:00:00,
2013-06-13 15:33:00,99.0,34.0,-100.00,North,-999,-999.0,-999.0,10,0.00,,,-99.99,,2013-06-13 22:33:00,
2013-06-13 15:43:00,99.0,34.0,-100.00,North,-999,-999.0,-999.0,10,0.00,,,-99.99,,2013-06-13 22:43:00,
2013-06-13 15:52:00,99.0,34.0,-100.00,North,-999,-999.0,-999.0,10,0.00,,,-99.99,,2013-06-13 22:52:00,
2013-06-13 16:00:00,99.0,35.0,-100.00,North,-999,-999.0,-999.0,11,0.00,,,-99.99,,2013-06-13 23:00:00,
2013-06-13 16:22:00,99.0,35.0,-100.00,North,-999,-999.0,-999.0,11,0.00,,,-99.99,,2013-06-13 23:22:00,
2013-06-13 16:32:00,99.0,35.0,-100.00,North,-999,-999.0,-999.0,11,0.00,,,-99.99,,2013-06-13 23:32:00,
2013-06-13 16:43:00,99.0,35.0,-100.00,North,-999,-999.0,-999.0,11,0.00,,,-99.99,,2013-06-13 23:43:00,
2013-06-13 16:52:00,99.0,35.0,-100.00,North,-999,-999.0,-999.0,11,0.00,,,-99.99,,2013-06-13 23:52:00,
2013-06-13 17:00:00,97.0,35.0,-100.00,North,-999,-999.0,-999.0,11,0.00,,,-99.99,,2013-06-14 00:00:00,
2013-06-13 17:34:00,97.0,35.0,-100.00,North,-999,-999.0,-999.0,11,0.00,,,-99.99,,2013-06-14 00:34:00,
2013-06-13 17:43:00,97.0,35.0,-100.00,North,-999,-999.0,-999.0,11,0.00,,,-99.99,,2013-06-14 00:43:00,
2013-06-13 17:53:00,97.0,35.0,-100.00,North,-999,-999.0,-999.0,11,0.00,,,-99.99,,2013-06-14 00:53:00,
2013-06-13 18:00:00,93.0,35.0,-100.00,North,-999,-999.0,-999.0,12,0.00,,,-99.99,,2013-06-14 01:00:00,
2013-06-13 18:22:00,93.0,35.0,-100.00,North,-999,-999.0,-999.0,12,0.00,,,-99.99,,2013-06-14 01:22:00,
2013-06-13 18:33:00,93.0,35.0,-100.00,North,-999,-999.0,-999.0,12,0.00,,,-99.99,,2013-06-14 01:33:00,
2013-06-13 18:43:00,93.0,35.0,-100.00,North,-999,-999.0,-999.0,12,0.00,,,-99.99,,2013-06-14 01:43:00,
2013-06-13 18:52:00,93.0,35.0,-100.00,North,-999,-999.0,-999.0,12,0.00,,,-99.99,,2013-06-14 01:52:00,
2013-06-13 19:00:00,91.0,33.0,-100.00,North,-999,-999.0,-999.0,13,0.00,,,-99.99,,2013-06-14 02:00:00,
2013-06-13 19:33:00,91.0,33.0,-100.00,North,-999,-999.0,-999.0,13,0.00,,,-99.99,,2013-06-14 02:33:00,
2013-06-13 19:43:00,91.0,33.0,-100.00,North,-999,-999.0,-999.0,13,0.00,,,-99.99,,2013-06-14 02:43:00,
2013-06-13 19:52:00,91.0,33.0,-100.00,North,-999,-999.0,-999.0,13,0.00,,,-99.99,,2013-06-14 02:52:00,
2013-06-13 20:00:00,87.0,34.0,-100.00,North,-999,-999.0,-999.0,14,0.00,,,-99.99,,2013-06-14 03:00:00,
2013-06-13 20:34:00,87.0,34.0,-100.00,North,-999,-999.0,-999.0,14,0.00,,,-99.99,,2013-06-14 03:34:00,
2013-06-13 20:43:00,87.0,34.0,-100.00,North,-999,-999.0,-999.0,14,0.00,,,-99.99,,2013-06-14 03:43:00,
2013-06-13 20:53:00,87.0,34.0,-100.00,North,-999,-999.0,-999.0,14,0.00,,,-99.99,,2013-06-14 03:53:00,
2013-06-13 21:00:00,83.0,35.0,-100.00,North,-999,-999.0,-999.0,17,0.00,,,-99.99,,2013-06-14 04:00:00,
2013-06-13 21:23:00,83.0,35.0,-100.00,North,-999,-999.0,-999.0,17,0.00,,,-99.99,,2013-06-14 04:23:00,
2013-06-13 21:33:00,83.0,35.0,-100.00,North,-999,-999.0,-999.0,17,0.00,,,-99.99,,2013-06-14 04:33:00,
2013-06-13 21:43:00,83.0,35.0,-100.00,North,-999,-999.0,-999.0,17,0.00,,,-99.99,,2013-06-14 04:43:00,
2013-06-13 21:53:00,83.0,35.0,-100.00,North,-999,-999.0,-999.0,17,0.00,,,-99.99,,2013-06-14 04:53:00,
2013-06-13 22:22:00,73.0,38.0,-100.00,North,-999,-999.0,-999.0,27,0.00,,,-99.99,,2013-06-14 05:22:00,
2013-06-13 23:23:00,68.0,36.0,-100.00,North,-999,-999.0,-999.0,31,0.00,,,-99.99,,2013-06-14 06:23:00,